createdAt,value
2019-04-03T00:01:07.915Z,16.30
2019-04-03T00:03:37.589Z,16.30
2019-04-03T00:06:07.164Z,16.40
2019-04-03T00:08:37.101Z,16.40
2019-04-03T00:11:08.665Z,16.40
2019-04-03T00:13:37.122Z,16.40
2019-04-03T00:16:06.767Z,16.40
2019-04-03T00:18:36.268Z,16.40
2019-04-03T00:21:05.921Z,16.40
2019-04-03T00:23:35.577Z,16.40
2019-04-03T00:26:05.216Z,16.40
2019-04-03T00:28:34.861Z,16.40
2019-04-03T00:31:05.517Z,16.40
2019-04-03T00:33:35.168Z,16.40
2019-04-03T00:36:04.801Z,16.40
2019-04-03T00:38:34.479Z,16.50
2019-04-03T00:41:04.228Z,16.50
2019-04-03T00:43:33.887Z,16.50
2019-04-03T00:46:03.509Z,16.50
2019-04-03T00:48:33.289Z,16.50
2019-04-03T00:51:02.932Z,16.50
2019-04-03T00:53:32.501Z,16.50
2019-04-03T00:56:02.012Z,16.50
2019-04-03T00:58:42.918Z,16.50
2019-04-03T01:01:13.114Z,16.40
2019-04-03T01:03:42.736Z,16.40
2019-04-03T01:06:12.384Z,16.30
2019-04-03T01:08:42.034Z,16.30
2019-04-03T01:11:11.602Z,16.20
2019-04-03T01:13:41.380Z,16.20
2019-04-03T01:16:11.053Z,16.20
2019-04-03T01:18:40.686Z,16.20
2019-04-03T01:21:10.261Z,16.10
2019-04-03T01:23:40.148Z,16.10
2019-04-03T01:26:10.081Z,16.10
2019-04-03T01:28:41.973Z,16.00
2019-04-03T01:31:12.766Z,16.00
2019-04-03T01:33:42.628Z,16.00
2019-04-03T01:36:13.210Z,16.00
2019-04-03T01:38:43.916Z,15.90
2019-04-03T01:41:13.499Z,15.90
2019-04-03T01:43:43.078Z,15.90
2019-04-03T01:46:12.653Z,15.90
2019-04-03T01:48:42.366Z,15.90
2019-04-03T01:51:11.912Z,15.90
2019-04-03T01:53:41.433Z,15.80
2019-04-03T01:56:11.018Z,15.80
2019-04-03T01:58:40.657Z,15.80
2019-04-03T02:01:10.228Z,15.70
2019-04-03T02:03:41.689Z,15.70
2019-04-03T02:06:13.290Z,15.70
2019-04-03T02:08:44.271Z,15.70
2019-04-03T02:11:14.023Z,15.60
2019-04-03T02:13:43.643Z,15.60
2019-04-03T02:16:13.221Z,15.50
2019-04-03T02:18:42.876Z,15.50
2019-04-03T02:21:12.515Z,15.50
2019-04-03T02:23:42.158Z,15.40
2019-04-03T02:26:11.952Z,15.40
2019-04-03T02:28:41.502Z,15.40
2019-04-03T02:31:11.284Z,15.30
2019-04-03T02:33:40.936Z,15.30
2019-04-03T02:36:12.559Z,15.30
2019-04-03T02:38:41.710Z,15.20
2019-04-03T02:41:11.351Z,15.20
2019-04-03T02:43:41.148Z,15.20
2019-04-03T02:46:10.913Z,15.10
2019-04-03T02:48:40.623Z,15.10
2019-04-03T02:51:10.692Z,15.10
2019-04-03T02:53:39.916Z,15.10
2019-04-03T02:56:11.581Z,15.00
2019-04-03T02:58:40.710Z,15.00
2019-04-03T03:01:10.284Z,15.00
2019-04-03T03:03:39.846Z,15.00
2019-04-03T03:06:09.769Z,14.90
2019-04-03T03:08:42.486Z,14.90
2019-04-03T03:11:12.751Z,14.80
2019-04-03T03:13:43.980Z,14.80
2019-04-03T03:16:14.514Z,14.80
2019-04-03T03:18:44.966Z,14.70
2019-04-03T03:21:14.725Z,14.70
2019-04-03T03:23:44.646Z,14.70
2019-04-03T03:26:15.567Z,14.70
2019-04-03T03:28:46.953Z,14.70
2019-04-03T03:31:17.653Z,14.60
2019-04-03T03:33:47.591Z,14.60
2019-04-03T03:36:21.755Z,14.60
2019-04-03T03:38:49.281Z,14.60
2019-04-03T03:41:22.039Z,14.60
2019-04-03T03:43:51.224Z,14.60
2019-04-03T03:46:26.400Z,14.60
2019-04-03T03:48:53.963Z,14.60
2019-04-03T03:51:24.238Z,14.50
2019-04-03T03:53:54.171Z,14.50
2019-04-03T03:56:25.221Z,14.50
2019-04-03T03:58:54.147Z,14.50
2019-04-03T04:01:23.797Z,14.40
2019-04-03T04:03:53.576Z,14.50
2019-04-03T04:06:25.579Z,14.50
2019-04-03T04:08:54.870Z,14.40
2019-04-03T04:11:23.655Z,14.40
2019-04-03T04:13:53.478Z,14.40
2019-04-03T04:16:23.196Z,14.40
2019-04-03T04:18:55.918Z,14.40
2019-04-03T04:21:25.847Z,14.40
2019-04-03T04:23:56.818Z,14.30
2019-04-03T04:26:27.383Z,14.40
2019-04-03T04:28:57.090Z,14.40
2019-04-03T04:31:26.656Z,14.30
2019-04-03T04:33:56.284Z,14.30
2019-04-03T04:36:25.934Z,14.30
2019-04-03T04:38:55.838Z,14.30
2019-04-03T04:41:26.697Z,14.30
2019-04-03T04:43:56.491Z,14.30
2019-04-03T04:46:26.110Z,14.20
2019-04-03T04:48:55.601Z,14.20
2019-04-03T04:51:25.848Z,14.20
2019-04-03T04:53:55.897Z,14.10
2019-04-03T04:56:25.471Z,14.10
2019-04-03T04:58:55.112Z,14.10
2019-04-03T05:01:24.686Z,14.00
2019-04-03T05:03:54.561Z,14.00
2019-04-03T05:06:24.510Z,14.00
2019-04-03T05:08:54.098Z,14.00
2019-04-03T05:11:23.881Z,14.00
2019-04-03T05:13:53.656Z,14.00
2019-04-03T05:16:25.046Z,14.00
2019-04-03T05:18:54.769Z,14.00
2019-04-03T05:21:24.405Z,14.00
2019-04-03T05:23:55.772Z,14.00
2019-04-03T05:26:25.243Z,14.00
2019-04-03T05:28:57.581Z,14.10
2019-04-03T05:31:26.002Z,14.10
2019-04-03T05:33:55.646Z,14.20
2019-04-03T05:36:25.230Z,14.20
2019-04-03T05:38:55.099Z,14.20
2019-04-03T05:41:27.552Z,14.30
2019-04-03T05:43:56.978Z,14.30
2019-04-03T05:46:26.784Z,14.40
2019-04-03T05:48:55.724Z,14.40
2019-04-03T05:51:25.341Z,14.50
2019-04-03T05:54:00.380Z,14.60
2019-04-03T05:56:30.131Z,14.60
2019-04-03T05:59:02.228Z,14.70
2019-04-03T06:01:30.956Z,14.70
2019-04-03T06:04:00.708Z,14.80
2019-04-03T06:06:30.551Z,14.80
2019-04-03T06:09:00.374Z,14.90
2019-04-03T06:11:30.128Z,15.00
2019-04-03T06:13:59.704Z,15.10
2019-04-03T06:16:29.384Z,15.20
2019-04-03T06:18:59.720Z,15.20
2019-04-03T06:21:29.438Z,15.30
2019-04-03T06:23:58.993Z,15.30
2019-04-03T06:26:28.574Z,15.30
2019-04-03T06:28:58.071Z,15.30
2019-04-03T06:31:27.774Z,15.30
2019-04-03T06:33:57.625Z,15.40
2019-04-03T06:36:27.238Z,15.40
2019-04-03T06:38:57.408Z,15.40
2019-04-03T06:41:28.405Z,15.50
2019-04-03T06:43:58.054Z,15.50
2019-04-03T06:46:29.201Z,15.50
2019-04-03T06:48:59.128Z,15.60
2019-04-03T06:51:28.868Z,15.70
2019-04-03T06:53:59.616Z,15.70
2019-04-03T06:56:29.543Z,15.80
2019-04-03T06:58:59.261Z,15.90
2019-04-03T07:01:28.861Z,16.00
2019-04-03T07:03:58.514Z,16.00
2019-04-03T07:06:28.081Z,16.10
2019-04-03T07:08:57.682Z,16.20
2019-04-03T07:11:27.471Z,16.30
2019-04-03T07:13:57.122Z,16.40
2019-04-03T07:16:28.436Z,16.40
2019-04-03T07:18:58.028Z,16.50
2019-04-03T07:21:27.859Z,16.60
2019-04-03T07:24:00.118Z,16.60
2019-04-03T07:26:29.042Z,16.70
2019-04-03T07:28:58.614Z,16.80
2019-04-03T07:31:28.501Z,16.90
2019-04-03T07:34:00.137Z,17.00
2019-04-03T07:36:29.737Z,17.10
2019-04-03T07:38:59.310Z,17.10
2019-04-03T07:41:29.028Z,17.20
2019-04-03T07:43:59.566Z,17.20
2019-04-03T07:46:29.147Z,17.20
2019-04-03T07:49:00.451Z,17.30
2019-04-03T07:51:29.982Z,17.40
2019-04-03T07:53:59.641Z,17.50
2019-04-03T07:56:29.270Z,17.60
2019-04-03T07:58:58.850Z,17.70
2019-04-03T08:01:28.629Z,17.80
2019-04-03T08:03:58.237Z,17.90
2019-04-03T08:06:27.913Z,17.90
2019-04-03T08:09:07.254Z,18.00
2019-04-03T08:11:28.789Z,18.00
2019-04-03T08:13:58.442Z,18.00
2019-04-03T08:16:28.004Z,18.10
2019-04-03T08:18:57.576Z,18.10
2019-04-03T08:21:28.002Z,18.10
2019-04-03T08:23:58.478Z,18.20
2019-04-03T08:26:28.044Z,18.30
2019-04-03T08:29:00.670Z,18.40
2019-04-03T08:31:29.363Z,18.40
2019-04-03T08:33:59.642Z,18.50
2019-04-03T08:36:29.640Z,18.60
2019-04-03T08:38:59.308Z,18.70
2019-04-03T08:41:28.927Z,18.80
2019-04-03T08:43:58.562Z,18.90
2019-04-03T08:46:43.055Z,19.00
2019-04-03T08:49:11.772Z,19.00
2019-04-03T08:51:41.478Z,19.10
2019-04-03T08:54:11.358Z,19.10
2019-04-03T08:56:40.172Z,19.20
2019-04-03T08:59:12.554Z,19.30
2019-04-03T09:01:40.865Z,19.30
2019-04-03T09:04:10.496Z,19.40
2019-04-03T09:06:40.133Z,19.50
2019-04-03T09:09:10.997Z,19.60
2019-04-03T09:11:40.577Z,19.80
2019-04-03T09:14:10.155Z,20.00
2019-04-03T09:16:40.087Z,20.20
2019-04-03T09:19:10.465Z,20.30
2019-04-03T09:21:40.085Z,20.50
2019-04-03T09:24:09.662Z,20.70
2019-04-03T09:26:39.221Z,20.90
2019-04-03T09:29:09.218Z,21.00
2019-04-03T09:31:38.914Z,21.20
2019-04-03T09:34:08.785Z,21.40
2019-04-03T09:36:37.557Z,21.60
2019-04-03T09:39:12.890Z,21.70
2019-04-03T09:41:41.305Z,21.90
2019-04-03T09:44:11.114Z,22.20
2019-04-03T09:46:39.964Z,22.40
2019-04-03T09:49:09.494Z,22.50
2019-04-03T09:51:39.201Z,22.70
2019-04-03T09:54:08.839Z,22.80
2019-04-03T09:56:54.837Z,22.90
2019-04-03T09:59:09.735Z,23.00
2019-04-03T10:01:39.435Z,23.00
2019-04-03T10:04:08.341Z,22.90
2019-04-03T10:06:38.364Z,22.80
2019-04-03T10:09:08.193Z,22.70
2019-04-03T10:11:39.228Z,22.60
2019-04-03T10:14:09.473Z,22.50
2019-04-03T10:16:39.088Z,22.40
2019-04-03T10:19:08.644Z,22.40
2019-04-03T10:21:38.558Z,22.40
2019-04-03T10:24:08.314Z,22.30
2019-04-03T10:26:40.547Z,22.30
2019-04-03T10:29:09.193Z,22.40
2019-04-03T10:31:38.808Z,22.40
2019-04-03T10:34:08.434Z,22.50
2019-04-03T10:36:38.116Z,22.60
2019-04-03T10:39:11.245Z,22.80
2019-04-03T10:41:40.948Z,22.90
2019-04-03T10:44:10.293Z,23.10
2019-04-03T10:46:39.979Z,23.00
2019-04-03T10:49:08.759Z,23.00
2019-04-03T10:51:40.879Z,23.20
2019-04-03T10:54:09.827Z,23.40
2019-04-03T10:56:38.792Z,23.60
2019-04-03T10:59:11.442Z,23.70
2019-04-03T11:01:39.979Z,23.70
2019-04-03T11:04:11.059Z,23.80
2019-04-03T11:06:41.157Z,24.00
2019-04-03T11:09:10.933Z,24.20
2019-04-03T11:11:42.999Z,24.30
2019-04-03T11:14:11.944Z,24.40
2019-04-03T11:16:40.794Z,24.50
2019-04-03T11:19:10.284Z,24.50
2019-04-03T11:21:39.938Z,24.50
2019-04-03T11:24:09.542Z,24.60
2019-04-03T11:26:39.350Z,24.90
2019-04-03T11:29:10.309Z,25.00
2019-04-03T11:31:42.199Z,25.20
2019-04-03T11:34:11.439Z,25.40
2019-04-03T11:36:41.061Z,25.50
2019-04-03T11:39:14.808Z,25.50
2019-04-03T11:41:41.286Z,25.50
2019-04-03T11:44:10.899Z,25.40
2019-04-03T11:46:40.402Z,25.30
2019-04-03T11:49:10.279Z,25.30
2019-04-03T11:51:39.885Z,25.40
2019-04-03T11:54:09.168Z,25.40
2019-04-03T11:56:39.117Z,25.50
2019-04-03T11:59:09.586Z,25.40
2019-04-03T12:01:39.125Z,25.20
2019-04-03T12:04:08.690Z,25.00
2019-04-03T12:06:38.541Z,24.90
2019-04-03T12:09:08.931Z,24.90
2019-04-03T12:11:39.527Z,24.80
2019-04-03T12:14:09.639Z,24.70
2019-04-03T12:16:38.485Z,24.70
2019-04-03T12:19:08.124Z,24.60
2019-04-03T12:21:36.889Z,24.80
2019-04-03T12:24:07.506Z,24.80
2019-04-03T12:26:37.054Z,24.70
2019-04-03T12:29:07.745Z,24.60
2019-04-03T12:31:37.969Z,24.70
2019-04-03T12:34:07.635Z,24.90
2019-04-03T12:36:36.862Z,25.20
2019-04-03T12:39:09.746Z,25.30
2019-04-03T12:41:39.598Z,25.60
2019-04-03T12:44:09.331Z,26.10
2019-04-03T12:46:40.902Z,26.70
2019-04-03T12:49:09.752Z,27.20
2019-04-03T12:51:39.342Z,27.30
2019-04-03T12:54:08.354Z,27.00
2019-04-03T12:56:38.202Z,26.70
2019-04-03T12:59:09.414Z,26.40
2019-04-03T13:01:39.240Z,26.20
2019-04-03T13:04:09.199Z,25.90
2019-04-03T13:06:41.817Z,25.70
2019-04-03T13:09:11.554Z,25.50
2019-04-03T13:11:41.289Z,25.30
2019-04-03T13:14:22.068Z,25.20
2019-04-03T13:16:41.894Z,25.10
2019-04-03T13:19:14.870Z,24.80
2019-04-03T13:21:43.359Z,24.60
2019-04-03T13:24:15.825Z,24.30
2019-04-03T13:26:44.122Z,24.10
2019-04-03T13:29:14.174Z,24.00
2019-04-03T13:31:46.284Z,23.90
2019-04-03T13:34:15.473Z,23.90
2019-04-03T13:36:45.121Z,24.00
2019-04-03T13:39:14.702Z,24.00
2019-04-03T13:41:44.261Z,24.10
2019-04-03T13:44:13.913Z,24.30
2019-04-03T13:46:43.470Z,24.50
2019-04-03T13:49:12.654Z,24.50
2019-04-03T13:51:42.385Z,24.30
2019-04-03T13:54:11.941Z,24.20
2019-04-03T13:56:43.178Z,24.10
2019-04-03T13:59:12.981Z,23.90
2019-04-03T14:01:42.604Z,23.70
2019-04-03T14:04:12.669Z,23.40
2019-04-03T14:06:42.229Z,23.10
2019-04-03T14:09:11.879Z,22.70
2019-04-03T14:11:41.363Z,22.50
2019-04-03T14:14:11.081Z,22.40
2019-04-03T14:16:40.645Z,22.20
2019-04-03T14:19:12.675Z,22.20
2019-04-03T14:21:41.796Z,22.20
2019-04-03T14:24:11.474Z,22.30
2019-04-03T14:26:41.199Z,22.40
2019-04-03T14:29:10.126Z,22.50
2019-04-03T14:31:39.745Z,22.70
2019-04-03T14:34:08.556Z,22.70
2019-04-03T14:36:38.140Z,22.80
2019-04-03T14:39:09.134Z,23.10
2019-04-03T14:41:39.521Z,23.10
2019-04-03T14:44:09.900Z,23.10
2019-04-03T14:46:39.661Z,23.10
2019-04-03T14:49:09.328Z,23.10
2019-04-03T14:51:38.798Z,23.10
2019-04-03T14:54:08.973Z,23.10
2019-04-03T14:56:39.122Z,22.90
2019-04-03T14:59:08.998Z,22.70
2019-04-03T15:01:38.599Z,22.60
2019-04-03T15:04:08.653Z,22.30
2019-04-03T15:06:38.274Z,22.00
2019-04-03T15:09:09.489Z,21.90
2019-04-03T15:11:39.261Z,21.70
2019-04-03T15:14:08.417Z,21.50
2019-04-03T15:16:37.925Z,21.30
2019-04-03T15:19:07.486Z,21.10
2019-04-03T15:21:37.528Z,21.00
2019-04-03T15:24:08.938Z,20.80
2019-04-03T15:26:38.506Z,20.70
2019-04-03T15:29:08.428Z,20.60
2019-04-03T15:31:38.168Z,20.50
2019-04-03T15:34:07.732Z,20.40
2019-04-03T15:36:37.724Z,20.40
2019-04-03T15:39:12.017Z,20.30
2019-04-03T15:41:41.956Z,20.30
2019-04-03T15:44:11.814Z,20.30
2019-04-03T15:46:40.546Z,20.20
2019-04-03T15:49:10.176Z,20.20
2019-04-03T15:51:40.464Z,20.10
2019-04-03T15:54:10.298Z,20.00
2019-04-03T15:56:44.334Z,19.90
2019-04-03T15:59:12.172Z,19.80
2019-04-03T16:01:42.233Z,19.60
2019-04-03T16:04:12.512Z,19.30
2019-04-03T16:06:42.160Z,19.10
2019-04-03T16:09:11.817Z,19.00
2019-04-03T16:11:41.610Z,18.80
2019-04-03T16:14:11.494Z,18.60
2019-04-03T16:16:40.347Z,18.50
2019-04-03T16:19:11.416Z,18.40
2019-04-03T16:21:41.436Z,18.40
2019-04-03T16:24:13.166Z,18.30
2019-04-03T16:26:42.723Z,18.20
2019-04-03T16:29:13.001Z,18.10
2019-04-03T16:31:42.801Z,18.10
2019-04-03T16:34:13.323Z,18.00
2019-04-03T16:36:43.416Z,18.00
2019-04-03T16:39:12.983Z,17.90
2019-04-03T16:41:44.076Z,17.80
2019-04-03T16:44:13.737Z,17.80
2019-04-03T16:46:43.518Z,17.70
2019-04-03T16:49:14.709Z,17.60
2019-04-03T16:51:44.734Z,17.50
2019-04-03T16:54:13.480Z,17.50
2019-04-03T16:56:42.892Z,17.40
2019-04-03T16:59:12.840Z,17.40
2019-04-03T17:01:44.441Z,17.40
2019-04-03T17:04:23.675Z,17.30
2019-04-03T17:06:47.326Z,17.30
2019-04-03T17:09:17.327Z,17.30
2019-04-03T17:11:48.856Z,17.20
2019-04-03T17:14:18.445Z,17.20
2019-04-03T17:16:48.040Z,17.20
2019-04-03T17:19:18.826Z,17.20
2019-04-03T17:21:48.439Z,17.20
2019-04-03T17:24:18.804Z,17.10
2019-04-03T17:26:53.908Z,17.10
2019-04-03T17:29:19.773Z,17.10
2019-04-03T17:31:49.382Z,17.00
2019-04-03T17:34:18.931Z,16.90
2019-04-03T17:36:50.068Z,16.90
2019-04-03T17:39:19.829Z,16.90
2019-04-03T17:41:49.453Z,16.80
2019-04-03T17:44:19.098Z,16.80
2019-04-03T17:46:49.460Z,16.70
2019-04-03T17:49:19.286Z,16.70
2019-04-03T17:51:48.789Z,16.70
2019-04-03T17:54:18.421Z,16.70
2019-04-03T17:56:47.977Z,16.60
2019-04-03T17:59:18.330Z,16.60
2019-04-03T18:01:48.643Z,16.50
2019-04-03T18:04:20.019Z,16.40
2019-04-03T18:06:49.661Z,16.40
2019-04-03T18:09:19.287Z,16.30
2019-04-03T18:11:48.931Z,16.20
2019-04-03T18:14:18.569Z,16.20
2019-04-03T18:16:48.218Z,16.20
2019-04-03T18:19:17.796Z,16.20
2019-04-03T18:21:48.819Z,16.20
2019-04-03T18:24:18.689Z,16.30
2019-04-03T18:26:48.377Z,16.30
2019-04-03T18:29:18.025Z,16.30
2019-04-03T18:31:47.731Z,16.20
2019-04-03T18:34:19.599Z,16.30
2019-04-03T18:36:48.710Z,16.30
2019-04-03T18:39:18.382Z,16.20
2019-04-03T18:41:48.304Z,16.20
2019-04-03T18:44:22.435Z,16.20
2019-04-03T18:46:50.266Z,16.10
2019-04-03T18:49:20.098Z,16.10
2019-04-03T18:51:49.894Z,16.10
2019-04-03T18:54:19.606Z,16.00
2019-04-03T18:56:49.328Z,16.00
2019-04-03T18:59:19.056Z,16.00
2019-04-03T19:01:48.850Z,16.00
2019-04-03T19:04:18.671Z,15.90
2019-04-03T19:06:48.470Z,16.00
2019-04-03T19:09:21.030Z,15.90
2019-04-03T19:11:51.406Z,15.80
2019-04-03T19:14:27.169Z,15.80
2019-04-03T19:16:54.453Z,15.80
2019-04-03T19:19:24.128Z,15.70
2019-04-03T19:21:54.632Z,15.70
2019-04-03T19:24:26.667Z,15.60
2019-04-03T19:26:56.494Z,15.60
2019-04-03T19:29:26.297Z,15.60
2019-04-03T19:31:56.203Z,15.50
2019-04-03T19:34:26.002Z,15.50
2019-04-03T19:36:55.812Z,15.50
2019-04-03T19:39:25.538Z,15.50
2019-04-03T19:41:55.373Z,15.50
2019-04-03T19:44:25.103Z,15.50
2019-04-03T19:46:54.860Z,15.60
2019-04-03T19:49:27.446Z,15.60
2019-04-03T19:51:56.222Z,15.60
2019-04-03T19:54:25.169Z,15.60
2019-04-03T19:56:56.273Z,15.60
2019-04-03T19:59:26.303Z,15.60
2019-04-03T20:01:56.134Z,15.60
2019-04-03T20:04:25.866Z,15.60
2019-04-03T20:06:55.618Z,15.60
2019-04-03T20:09:25.438Z,15.50
2019-04-03T20:11:54.633Z,15.60
2019-04-03T20:14:24.357Z,15.60
2019-04-03T20:16:54.473Z,15.60
2019-04-03T20:19:24.923Z,15.60
2019-04-03T20:21:55.849Z,15.60
2019-04-03T20:24:25.587Z,15.60
2019-04-03T20:26:55.373Z,15.70
2019-04-03T20:29:27.551Z,15.70
2019-04-03T20:31:58.668Z,15.70
2019-04-03T20:34:28.489Z,15.70
2019-04-03T20:36:59.686Z,15.70
2019-04-03T20:39:29.573Z,15.70
2019-04-03T20:41:58.527Z,15.70
2019-04-03T20:44:28.261Z,15.70
2019-04-03T20:46:58.083Z,15.70
2019-04-03T20:49:27.742Z,15.60
2019-04-03T20:51:57.442Z,15.60
2019-04-03T20:54:27.096Z,15.60
2019-04-03T20:56:58.146Z,15.60
2019-04-03T20:59:30.124Z,15.60
2019-04-03T21:01:59.622Z,15.60
2019-04-03T21:04:29.228Z,15.60
2019-04-03T21:06:59.040Z,15.50
2019-04-03T21:09:30.565Z,15.50
2019-04-03T21:12:00.645Z,15.50
2019-04-03T21:14:29.504Z,15.50
2019-04-03T21:16:59.077Z,15.50
2019-04-03T21:19:29.629Z,15.50
2019-04-03T21:21:59.620Z,15.40
2019-04-03T21:24:29.947Z,15.40
2019-04-03T21:27:00.820Z,15.40
2019-04-03T21:29:30.468Z,15.40
2019-04-03T21:32:00.172Z,15.30
2019-04-03T21:34:32.489Z,15.30
2019-04-03T21:37:01.237Z,15.40
2019-04-03T21:39:33.597Z,15.40
2019-04-03T21:42:02.141Z,15.30
2019-04-03T21:44:32.007Z,15.30
2019-04-03T21:47:02.246Z,15.30
2019-04-03T21:49:31.884Z,15.30
2019-04-03T21:52:01.521Z,15.30
2019-04-03T21:54:31.096Z,15.30
2019-04-03T21:57:00.709Z,15.30
2019-04-03T21:59:30.403Z,15.30
2019-04-03T22:02:01.690Z,15.20
2019-04-03T22:04:31.331Z,15.20
2019-04-03T22:07:01.062Z,15.30
2019-04-03T22:09:31.252Z,15.20
